Flight Track Log - Related Links

Times and Time Zones

All times are in EDT time to prevent confusion due to time zone crossing. See the AFR6725 flight status page for this flight to view local times or setup timezone preferences in your user account.


Time Position Orientation Groundspeed Altitude Reporting Facility
EDT Latitude Longitude Course Direction KTS MPH feet Rate Location/Type
Sun 10:25:32 AM 29.9826 -95.3546 270° West 96 110  Level FlightAware ADS-B
Sun 10:25:54 AM 29.9692 -95.3465 152° Southeast 175 201 923 Level FlightAware ADS-B
Sun 10:26:11 AM 29.9566 -95.3389 152° Southeast 176 203 600 2,087 Climbing FlightAware ADS-B
Sun 10:26:17 AM 29.9523 -95.3363 152° Southeast 176 203 800 1,800 Climbing FlightAware ADS-B
Sun 10:26:21 AM 29.9499 -95.3346 148° Southeast 176 203 900 1,333 Climbing FlightAware ADS-B
Sun 10:26:26 AM 29.9465 -95.3314 141° Southeast 176 203 1,000 1,333 Climbing FlightAware ADS-B
Sun 10:26:30 AM 29.9443 -95.3283 129° Southeast 176 203 1,100 1,500 Climbing FlightAware ADS-B
Sun 10:26:34 AM 29.9431 -95.3257 118° Southeast 174 200 1,200 1,000 Climbing FlightAware ADS-B
Sun 10:27:42 AM 29.9879 -95.2911 34° Northeast 239 275 2,300 977 Climbing FlightAware ADS-B
Sun 10:28:00 AM 30.0089 -95.2869 10° North 252 290 2,600 1,000 Climbing FlightAware ADS-B
Sun 10:28:24 AM 30.0377 -95.2809 10° North 277 319 3,000 1,050 Climbing FlightAware ADS-B
Sun 10:28:40 AM 30.0583 -95.2765 10° North 281 323 3,300 886 Climbing FlightAware ADS-B
Sun 10:29:52 AM 30.1555 -95.2538 11° North 293 337 4,300 963 Climbing FlightAware ADS-B
Sun 10:30:01 AM 30.1672 -95.2511 11° North 298 343 4,600 2,400 Climbing FlightAware ADS-B
Sun 10:30:12 AM 30.1814 -95.2469 14° North 296 341 5,100 2,538 Climbing FlightAware ADS-B
Sun 10:30:27 AM 30.2018 -95.2392 18° North 296 341 5,700 2,488 Climbing FlightAware ADS-B
Sun 10:30:53 AM 30.2355 -95.2254 19° North 297 342 6,800 2,211 Climbing FlightAware ADS-B
Sun 10:32:02 AM 30.3257 -95.1868 20° North 309 356 9,200 2,047 Climbing FlightAware ADS-B
Sun 10:32:18 AM 30.3474 -95.1775 20° North 313 360 9,700 1,565 Climbing FlightAware ADS-B
Sun 10:32:48 AM 30.3898 -95.1595 20° North 333 383 10,400 1,316 Climbing FlightAware ADS-B
Sun 10:34:12 AM 30.5226 -95.1027 20° North 390 449 12,200 1,255 Climbing FlightAware ADS-B
Sun 10:34:38 AM 30.5677 -95.0831 21° North 409 471 12,700 1,500 Climbing FlightAware ADS-B
Sun 10:34:56 AM 30.5978 -95.0685 23° Northeast 413 475 13,300 2,229 Climbing FlightAware ADS-B
Sun 10:36:23 AM 30.7497 -94.9747 28° Northeast 438 504 16,600 2,205 Climbing FlightAware ADS-B
Sun 10:36:53 AM 30.8052 -94.9402 28° Northeast 450 518 17,600 2,000 Climbing FlightAware ADS-B
Sun 10:37:23 AM 30.8608 -94.9054 28° Northeast 456 525 18,600 2,040 Climbing FlightAware ADS-B
Sun 10:38:33 AM 30.9910 -94.8241 28° Northeast 468 539 21,000 1,980 Climbing FlightAware ADS-B
Sun 10:39:03 AM 31.0489 -94.7880 28° Northeast 473 544 21,900 1,800 Climbing FlightAware ADS-B
Sun 10:39:33 AM 31.1073 -94.7515 28° Northeast 479 551 22,800 1,800 Climbing FlightAware ADS-B
Sun 10:40:43 AM 31.2432 -94.6589 30° Northeast 491 565 24,900 1,740 Climbing FlightAware ADS-B
Sun 10:41:13 AM 31.3038 -94.6185 30° Northeast 497 572 25,700 1,475 Climbing FlightAware ADS-B
Sun 10:41:44 AM 31.3645 -94.5775 30° Northeast 502 578 26,400 1,358 Climbing FlightAware ADS-B
Sun 10:42:59 AM 31.4998 -94.4842 30° Northeast 513 590 28,100 1,626 Climbing FlightAware ADS-B
Sun 10:43:31 AM 31.5826 -94.4264 31° Northeast 512 589 29,300 1,694 Climbing FlightAware ADS-B
Sun 10:45:03 AM 31.7674 -94.2971 31° Northeast 511 588 31,600 1,548 Climbing FlightAware ADS-B
Sun 10:45:35 AM 31.8355 -94.2493 31° Northeast 509 586 32,500 1,579 Climbing FlightAware ADS-B
Sun 10:46:00 AM 31.8847 -94.2142 31° Northeast 507 583 33,100 1,366 Climbing FlightAware ADS-B
Sun 10:47:16 AM 32.0091 -94.1037 37° Northeast 496 571 34,800 1,075 Climbing FlightAware ADS-B
Sun 10:47:46 AM 32.0780 -94.0378 39° Northeast 497 572 35,000 94 Climbing FlightAware ADS-B
Sun 10:49:23 AM 32.2508 -93.8688 40° Northeast 495 570 35,000  Level FlightAware ADS-B
Sun 10:50:26 AM 32.3608 -93.7608 40° Northeast 494 568 35,000  Level FlightAware ADS-B
Sun 10:51:59 AM 32.4718 -93.6515 40° Northeast 491 565 35,000  Level FlightAware ADS-B
Sun 10:55:58 AM 32.9323 -93.1749 41° Northeast 493 567 35,000  Level FlightAware ADS-B
Sun 10:56:53 AM 33.0237 -93.0729 43° Northeast 494 568 35,000  Level FlightAware ADS-B
Sun 10:57:58 AM 33.1286 -92.9539 43° Northeast 495 570 35,000  Level Fort Worth Center
Sun 10:59:00 AM 33.2292 -92.8417 43° Northeast 496 571 35,000  Level Fort Worth Center
Sun 11:00:02 AM 33.3294 -92.7289 43° Northeast 495 570 35,000  Level Fort Worth Center
Sun 11:01:02 AM 33.4367 -92.6125 42° Northeast 495 570 35,000  Level Memphis Center
Sun 11:02:02 AM 33.5367 -92.5006 43° Northeast 489 563 35,000  Level Memphis Center
Sun 11:03:02 AM 33.6344 -92.3881 44° Northeast 489 563 35,000  Level Memphis Center
Sun 11:04:02 AM 33.7386 -92.2756 42° Northeast 489 563 35,000  Level Memphis Center
Sun 11:05:02 AM 33.8342 -92.1603 45° Northeast 489 563 35,000  Level Memphis Center
Sun 11:06:02 AM 33.9400 -92.0497 41° Northeast 489 563 35,000  Level Memphis Center
Sun 11:07:02 AM 34.0356 -91.9339 45° Northeast 489 563 35,000  Level Memphis Center
Sun 11:08:02 AM 34.1286 -91.8200 45° Northeast 497 572 35,000  Level Memphis Center
Sun 11:09:02 AM 34.2364 -91.6989 43° Northeast 492 566 35,000  Level Memphis Center
Sun 11:10:02 AM 34.3358 -91.5822 44° Northeast 492 566 35,000  Level Memphis Center
Sun 11:11:02 AM 34.4350 -91.4653 44° Northeast 492 566 35,000  Level Memphis Center
Sun 11:12:02 AM 34.5381 -91.3506 43° Northeast 492 566 35,000  Level Memphis Center
Sun 11:13:02 AM 34.6392 -91.2306 44° Northeast 485 558 35,000  Level Memphis Center
Sun 11:14:02 AM 34.7381 -91.1153 44° Northeast 490 564 35,000  Level Memphis Center
Sun 11:15:02 AM 34.8389 -90.9972 44° Northeast 490 564 35,000  Level Memphis Center
Sun 11:16:02 AM 34.9269 -90.8914 45° Northeast 490 564 35,000  Level Memphis Center
Sun 11:17:02 AM 35.0297 -90.7731 43° Northeast 490 564 35,000 50 Level Memphis Center
Sun 11:18:02 AM 35.1300 -90.6517 45° Northeast 485 558 35,100  Climbing Memphis Center
Sun 11:19:02 AM 35.2283 -90.5350 44° Northeast 485 558 35,000 -50 Descending Memphis Center
Sun 11:20:02 AM 35.3286 -90.4131 45° Northeast 491 565 35,000  Level Memphis Center
Sun 11:21:02 AM 35.4369 -90.2806 45° Northeast 491 565 35,000  Level Memphis Center
Sun 11:22:02 AM 35.5392 -90.1606 44° Northeast 491 565 35,000  Level Memphis Center
Sun 11:23:02 AM 35.6389 -90.0378 45° Northeast 491 565 35,000  Level Memphis Center
Sun 11:24:02 AM 35.7283 -89.9172 48° Northeast 484 557 35,000  Level Memphis Center
Sun 11:25:02 AM 35.8258 -89.7989 45° Northeast 484 557 35,000  Level Memphis Center
Sun 11:26:02 AM 35.9253 -89.6753 45° Northeast 489 563 35,000  Level Memphis Center
Sun 11:27:02 AM 36.0247 -89.5536 45° Northeast 489 563 35,000  Level Memphis Center
Sun 11:28:02 AM 36.1239 -89.4319 45° Northeast 489 563 35,000  Level Memphis Center
Sun 11:29:02 AM 36.2186 -89.3047 47° Northeast 489 563 35,000  Level Memphis Center
Sun 11:30:02 AM 36.3114 -89.1878 45° Northeast 505 581 35,000  Level Memphis Center
Sun 11:31:02 AM 36.4167 -89.0650 43° Northeast 510 587 35,000  Level Memphis Center
Sun 11:32:02 AM 36.5153 -88.9447 44° Northeast 504 580 35,000  Level Memphis Center
Sun 11:33:02 AM 36.6139 -88.8214 45° Northeast 499 574 35,000  Level Memphis Center
Sun 11:34:02 AM 36.7122 -88.6978 45° Northeast 499 574 35,000  Level Memphis Center
Sun 11:35:02 AM 36.8106 -88.5739 45° Northeast 499 574 35,000  Level Memphis Center
Sun 11:36:02 AM 36.9089 -88.4472 46° Northeast 499 574 35,000  Level Memphis Center
Sun 11:37:02 AM 37.0089 -88.3228 45° Northeast 499 574 35,000  Level Memphis Center
Sun 11:38:02 AM 37.1067 -88.1956 46° Northeast 499 574 35,000  Level Memphis Center
Sun 11:40:27 AM 37.3389 -87.8922 46° Northeast 508 585 35,000  Level Indianapolis Center
Sun 11:41:29 AM 37.4522 -87.7428 46° Northeast 502 578 35,000  Level Indianapolis Center
Sun 11:42:31 AM 37.5528 -87.6117 46° Northeast 510 587 35,000  Level Indianapolis Center
Sun 11:43:33 AM 37.6508 -87.4814 46° Northeast 507 583 35,000  Level Indianapolis Center
Sun 11:44:34 AM 37.7497 -87.3511 46° Northeast 509 586 35,000  Level Indianapolis Center
Sun 11:45:36 AM 37.8522 -87.2144 46° Northeast 510 587 35,000  Level Indianapolis Center
Sun 11:46:38 AM 37.9494 -87.0850 46° Northeast 510 587 35,000  Level Indianapolis Center
Sun 11:47:40 AM 38.0456 -86.9547 47° Northeast 510 587 35,000  Level Indianapolis Center
Sun 11:48:41 AM 38.1428 -86.8239 47° Northeast 514 592 35,000 49 Level Indianapolis Center
Sun 11:49:43 AM 38.2392 -86.6931 47° Northeast 513 590 35,100  Climbing Indianapolis Center
Sun 11:50:45 AM 38.3558 -86.5361 47° Northeast 511 588 35,000 -48 Descending Indianapolis Center
Sun 11:51:47 AM 38.4536 -86.4047 46° Northeast 511 588 35,000  Level Indianapolis Center
Sun 11:52:48 AM 38.5494 -86.2728 47° Northeast 509 586 35,000  Level Indianapolis Center
Sun 11:53:50 AM 38.6467 -86.1392 47° Northeast 510 587 35,000  Level Indianapolis Center
Sun 11:54:52 AM 38.7444 -86.0056 47° Northeast 513 590 35,000  Level Indianapolis Center
Sun 11:55:53 AM 38.8428 -85.8686 47° Northeast 516 594 35,000  Level Indianapolis Center
Sun 11:56:55 AM 38.9389 -85.7339 47° Northeast 516 594 35,000  Level Indianapolis Center
Sun 11:57:57 AM 39.0356 -85.6003 47° Northeast 516 594 35,000  Level Indianapolis Center
Sun 11:58:59 AM 39.1514 -85.4381 47° Northeast 516 594 35,000  Level Indianapolis Center
Sun 12:00:00 PM 39.2481 -85.3014 48° Northeast 519 597 35,000  Level Indianapolis Center
Sun 12:01:02 PM 39.3442 -85.1658 47° Northeast 517 595 35,000  Level Indianapolis Center
Sun 12:02:04 PM 39.4394 -85.0283 48° Northeast 518 596 35,000  Level Indianapolis Center
Sun 12:03:06 PM 39.5369 -84.8917 47° Northeast 520 598 35,000  Level Indianapolis Center
Sun 12:04:07 PM 39.6350 -84.7489 48° Northeast 519 597 35,000  Level Indianapolis Center
Sun 12:05:09 PM 39.7314 -84.6097 48° Northeast 518 596 35,000  Level Indianapolis Center
Sun 12:06:11 PM 39.8478 -84.4414 48° Northeast 519 597 35,000  Level Indianapolis Center
Sun 12:07:13 PM 39.9442 -84.3003 48° Northeast 520 598 35,000  Level Indianapolis Center
Sun 12:08:14 PM 40.0469 -84.1664 45° Northeast 519 597 35,000 49 Level Indianapolis Center
Sun 12:09:16 PM 40.1603 -84.0472 39° Northeast 521 600 35,100  Climbing Indianapolis Center
Sun 12:10:18 PM 40.2706 -83.9261 40° Northeast 515 593 35,000 -48 Descending Indianapolis Center
Sun 12:11:20 PM 40.3844 -83.8083 38° Northeast 518 596 35,000  Level Indianapolis Center
Sun 12:12:22 PM 40.4967 -83.6889 39° Northeast 518 596 35,000  Level Indianapolis Center
Sun 12:13:23 PM 40.6094 -83.5700 39° Northeast 518 596 35,000  Level Indianapolis Center
Sun 12:14:25 PM 40.7456 -83.4258 39° Northeast 521 600 35,000  Level Indianapolis Center
Sun 12:15:27 PM 40.8617 -83.3019 39° Northeast 522 601 35,000  Level Indianapolis Center
Sun 12:16:02 PM 40.9261 -83.2308 40° Northeast 526 605 35,000  Level Cleveland Center
Sun 12:17:04 PM 41.0317 -83.1169 39° Northeast 521 600 35,000  Level Cleveland Center
Sun 12:18:06 PM 41.1458 -82.9928 39° Northeast 524 603 35,000  Level Cleveland Center
Sun 12:19:08 PM 41.2600 -82.8706 39° Northeast 522 601 35,000  Level Cleveland Center
Sun 12:20:10 PM 41.3939 -82.7258 39° Northeast 524 603 35,000  Level Cleveland Center
Sun 12:21:13 PM 41.5075 -82.6003 40° Northeast 524 603 35,000  Level Cleveland Center
Sun 12:22:15 PM 41.6217 -82.4761 39° Northeast 522 601 35,000  Level Cleveland Center
Sun 12:23:17 PM 41.7206 -82.3661 40° Northeast 525 604 35,000  Level Cleveland Center
Sun 12:24:19 PM 41.8553 -82.2172 39° Northeast 527 606 35,000  Level Cleveland Center
Sun 12:25:21 PM 41.9642 -82.0944 40° Northeast 526 605 35,000  Level Cleveland Center
Sun 12:26:23 PM 42.0789 -81.9672 39° Northeast 526 605 35,000  Level Cleveland Center
Sun 12:27:25 PM 42.1911 -81.8411 40° Northeast 523 602 35,000  Level Cleveland Center
Sun 12:28:27 PM 42.3039 -81.7119 40° Northeast 523 602 35,000  Level Cleveland Center
Sun 12:29:29 PM 42.4344 -81.5650 40° Northeast 520 598 35,000  Level Cleveland Center
Sun 12:30:31 PM 42.5464 -81.4372 40° Northeast 521 600 35,000  Level Cleveland Center
Sun 12:31:33 PM 42.6575 -81.3083 40° Northeast 520 598 35,000  Level Cleveland Center
Sun 12:32:35 PM 42.7694 -81.1811 40° Northeast 519 597 35,000  Level Cleveland Center
Sun 12:34:08 PM 42.9333 -80.9500 46° Northeast 520 598 35,000  Level Toronto Center
Sun 12:35:08 PM 43.0333 -80.8500 36° Northeast 520 598 35,000  Level Toronto Center
Sun 12:36:08 PM 43.1667 -80.6833 42° Northeast 530 610 35,000  Level Toronto Center
Sun 12:37:08 PM 43.2833 -80.5667 36° Northeast 530 610 35,000  Level Toronto Center
Sun 12:38:08 PM 43.3833 -80.4333 44° Northeast 530 610 35,000  Level Toronto Center
Sun 12:39:08 PM 43.5000 -80.3000 40° Northeast 530 610 35,000  Level Toronto Center
Sun 12:40:08 PM 43.6000 -80.1667 44° Northeast 530 610 35,000  Level Toronto Center
Sun 12:41:08 PM 43.7167 -80.0333 40° Northeast 540 621 35,000  Level Toronto Center
Sun 12:42:08 PM 43.8333 -79.8833 43° Northeast 540 621 35,000  Level Toronto Center
Sun 12:43:08 PM 43.9500 -79.7667 36° Northeast 540 621 35,000  Level Toronto Center
Sun 12:44:08 PM 44.0667 -79.6167 43° Northeast 540 621 35,000  Level Toronto Center
Sun 12:45:08 PM 44.1667 -79.4667 47° Northeast 540 621 35,000  Level Toronto Center
Sun 12:46:08 PM 44.2833 -79.3333 39° Northeast 540 621 35,000  Level Toronto Center
Sun 12:47:08 PM 44.4000 -79.1833 43° Northeast 540 621 35,000  Level Toronto Center
Sun 12:48:08 PM 44.5000 -79.0667 40° Northeast 550 633 35,000  Level Toronto Center
Sun 12:49:08 PM 44.6167 -78.9000 45° Northeast 550 633 35,000  Level Toronto Center
Sun 12:50:08 PM 44.7333 -78.7667 39° Northeast 550 633 35,000  Level Toronto Center
Sun 12:51:08 PM 44.8500 -78.6167 42° Northeast 550 633 35,000  Level Toronto Center
Sun 12:52:01 PM 44.9500 -78.5167 35° Northeast 550 633 35,000  Level Montreal Center
Sun 12:53:01 PM 45.0667 -78.3833 39° Northeast 550 633 35,000  Level Montreal Center
Sun 12:54:01 PM 45.1667 -78.2500 43° Northeast 550 633 35,000  Level Montreal Center
Sun 12:55:01 PM 45.2833 -78.0833 45° Northeast 550 633 35,000  Level Montreal Center
Sun 12:56:01 PM 45.3833 -77.9500 43° Northeast 550 633 35,000  Level Montreal Center
Sun 12:57:01 PM 45.5167 -77.7833 41° Northeast 540 621 35,000  Level Montreal Center
Sun 12:58:01 PM 45.6167 -77.6500 43° Northeast 550 633 35,000  Level Montreal Center
Sun 12:59:01 PM 45.7333 -77.4833 45° Northeast 550 633 35,000  Level Montreal Center
Sun 01:00:01 PM 45.8167 -77.3167 54° Northeast 560 644 35,000  Level Montreal Center
Sun 01:01:08 PM 45.9333 -77.0833 54° Northeast 560 644 35,000  Level Toronto Center
Sun 01:02:08 PM 46.0333 -76.9167 49° Northeast 570 656 35,000  Level Toronto Center
Sun 01:03:01 PM 46.1333 -76.7833 43° Northeast 570 656 35,000  Level Montreal Center
Sun 01:04:01 PM 46.2167 -76.6000 57° Northeast 560 644 35,000  Level Montreal Center
Sun 01:05:01 PM 46.3167 -76.4000 54° Northeast 570 656 35,000  Level Montreal Center
Sun 01:06:01 PM 46.4167 -76.2333 49° Northeast 560 644 35,000  Level Montreal Center
Sun 01:07:01 PM 46.5167 -76.0333 54° Northeast 570 656 35,000  Level Montreal Center
Sun 01:08:01 PM 46.6167 -75.8667 49° Northeast 570 656 35,000  Level Montreal Center
Sun 01:09:01 PM 46.7167 -75.7000 49° Northeast 570 656 35,000  Level Montreal Center
Sun 01:10:01 PM 46.8167 -75.5333 49° Northeast 570 656 35,000  Level Montreal Center
Sun 01:11:01 PM 46.9000 -75.3333 59° Northeast 570 656 35,000  Level Montreal Center
Sun 01:12:01 PM 47.0000 -75.1500 51° Northeast 570 656 35,000  Level Montreal Center
Sun 01:13:01 PM 47.1000 -74.9500 54° Northeast 570 656 35,000  Level Montreal Center
Sun 01:14:01 PM 47.2000 -74.7833 49° Northeast 570 656 35,000  Level Montreal Center
Sun 01:15:01 PM 47.3000 -74.5833 54° Northeast 570 656 35,000  Level Montreal Center
Sun 01:16:01 PM 47.4000 -74.4000 51° Northeast 580 667 35,000  Level Montreal Center
Sun 01:17:01 PM 47.4833 -74.2000 58° Northeast 570 656 35,000  Level Montreal Center
Sun 01:18:01 PM 47.5833 -74.0167 51° Northeast 570 656 35,000  Level Montreal Center
Sun 01:19:01 PM 47.6667 -73.8500 53° Northeast 560 644 35,000  Level Montreal Center
Sun 01:20:01 PM 47.7833 -73.6500 49° Northeast 560 644 35,000  Level Montreal Center
Sun 01:21:01 PM 47.8667 -73.4667 56° Northeast 560 644 35,000  Level Montreal Center
Sun 01:22:01 PM 47.9500 -73.2500 60° Northeast 560 644 35,000  Level Montreal Center
Sun 01:23:01 PM 48.0500 -73.0833 48° Northeast 560 644 35,000  Level Montreal Center
Sun 01:24:01 PM 48.1500 -72.8667 55° Northeast 560 644 35,000  Level Montreal Center
Sun 01:25:01 PM 48.2333 -72.6833 56° Northeast 570 656 35,000  Level Montreal Center
Sun 01:26:01 PM 48.3333 -72.5000 51° Northeast 560 644 35,000  Level Montreal Center
Sun 01:27:01 PM 48.4167 -72.3167 56° Northeast 560 644 35,000  Level Montreal Center
Sun 01:28:01 PM 48.5167 -72.1333 50° Northeast 560 644 35,000  Level Montreal Center
Sun 01:29:01 PM 48.6000 -71.9167 60° Northeast 560 644 35,000  Level Montreal Center
Sun 01:30:01 PM 48.6833 -71.7333 55° Northeast 560 644 35,000  Level Montreal Center
Sun 01:31:01 PM 48.8000 -71.5333 48° Northeast 550 633 35,000  Level Montreal Center
Sun 01:32:01 PM 48.8667 -71.3333 63° Northeast 560 644 35,000  Level Montreal Center
Sun 01:33:01 PM 48.9667 -71.1500 50° Northeast 560 644 35,000  Level Montreal Center
Sun 01:34:01 PM 49.0500 -70.9333 60° Northeast 560 644 35,000  Level Montreal Center
Sun 01:35:01 PM 49.1333 -70.7500 55° Northeast 560 644 35,000  Level Montreal Center
Sun 01:36:01 PM 49.2167 -70.5500 57° Northeast 560 644 35,000  Level Montreal Center
Sun 01:37:01 PM 49.3167 -70.3667 50° Northeast 560 644 35,000  Level Montreal Center
Sun 01:38:01 PM 49.4000 -70.1500 59° Northeast 560 644 35,000  Level Montreal Center
Sun 01:39:01 PM 49.5000 -69.9500 52° Northeast 570 656 35,000 50 Level Montreal Center
Sun 01:40:01 PM 49.5833 -69.7667 55° Northeast 570 656 35,100  Climbing Montreal Center
Sun 01:41:01 PM 49.6667 -69.5333 61° Northeast 570 656 35,000 -50 Descending Montreal Center
Sun 01:42:01 PM 49.7667 -69.3500 50° Northeast 570 656 35,000  Level Montreal Center
Sun 01:43:01 PM 49.8500 -69.1167 61° Northeast 570 656 35,000  Level Montreal Center
Sun 01:44:01 PM 49.9167 -68.9333 60° Northeast 570 656 35,000  Level Montreal Center
Sun 01:45:01 PM 50.0333 -68.7000 52° Northeast 570 656 35,000  Level Montreal Center
Sun 01:46:01 PM 50.1000 -68.5167 60° Northeast 570 656 35,000  Level Montreal Center
Sun 01:47:01 PM 50.1833 -68.3167 57° Northeast 570 656 35,000  Level Montreal Center
Sun 01:48:01 PM 50.2667 -68.0833 61° Northeast 570 656 35,000  Level Montreal Center
Sun 01:48:34 PM 50.3167 -67.9833 52° Northeast 570 656 35,000  Level Moncton Center
Sun 01:49:34 PM 50.4000 -67.7833 57° Northeast 570 656 35,000  Level Moncton Center
Sun 01:50:34 PM 50.4833 -67.5833 57° Northeast 570 656 35,000  Level Moncton Center
Sun 01:51:04 PM 50.5167 -67.4667 66° East 570 656 35,000  Level Gander Center
Sun 01:52:01 PM 50.6167 -67.2333 56° Northeast 570 656 35,000  Level Montreal Center
Sun 01:53:01 PM 50.7000 -67.0167 59° Northeast 570 656 35,000  Level Montreal Center
Sun 01:54:01 PM 50.7667 -66.8167 62° Northeast 570 656 35,000  Level Montreal Center
Sun 01:55:01 PM 50.8500 -66.5833 60° Northeast 560 644 35,000  Level Montreal Center
Sun 01:56:01 PM 50.9333 -66.3833 56° Northeast 560 644 35,000  Level Montreal Center
Sun 01:57:01 PM 51.0167 -66.1833 56° Northeast 560 644 35,000  Level Montreal Center
Sun 01:58:01 PM 51.1000 -65.9667 58° Northeast 560 644 35,000  Level Montreal Center
Sun 01:59:01 PM 51.1667 -65.7667 62° Northeast 550 633 35,000  Level Montreal Center
Sun 02:00:01 PM 51.2500 -65.5333 60° Northeast 550 633 35,000  Level Montreal Center
Sun 02:00:34 PM 51.3000 -65.4333 51° Northeast 550 633 35,000  Level Moncton Center
Sun 02:01:34 PM 51.3833 -65.2500 54° Northeast 550 633 35,000  Level Moncton Center
Sun 02:02:34 PM 51.4500 -65.0167 65° Northeast 550 633 35,000  Level Moncton Center
Sun 02:03:34 PM 51.5333 -64.8333 54° Northeast 550 633 35,000  Level Moncton Center
Sun 02:04:34 PM 51.6000 -64.5833 67° East 550 633 35,000  Level Moncton Center
Sun 02:05:34 PM 51.6833 -64.4000 54° Northeast 540 621 35,000  Level Moncton Center
Sun 02:06:34 PM 51.7500 -64.1833 64° Northeast 540 621 35,000  Level Moncton Center
Sun 02:07:34 PM 51.8333 -63.9667 58° Northeast 540 621 35,000  Level Moncton Center
Sun 02:08:04 PM 51.8667 -63.8500 65° Northeast 540 621 35,000  Level Gander Center
Sun 02:08:34 PM 51.9000 -63.7500 62° Northeast 540 621 35,000  Level Moncton Center
Sun 02:09:34 PM 51.9833 -63.5333 58° Northeast 540 621 35,000  Level Moncton Center
Sun 02:10:34 PM 52.0500 -63.3333 61° Northeast 540 621 35,000  Level Moncton Center
Sun 02:11:04 PM 52.0833 -63.2167 65° Northeast 540 621 35,000  Level Gander Center
Sun 02:12:04 PM 52.1500 -63.0000 63° Northeast 540 621 35,000  Level Gander Center
Sun 02:12:34 PM 52.2000 -62.9000 51° Northeast 540 621 35,000  Level Moncton Center
Sun 02:13:04 PM 52.2167 -62.7833 77° East 540 621 35,000  Level Gander Center
Sun 02:14:04 PM 52.3000 -62.5667 58° Northeast 540 621 35,000  Level Gander Center
Sun 02:15:04 PM 52.3667 -62.3500 63° Northeast 540 621 35,000  Level Gander Center
Sun 02:16:04 PM 52.4333 -62.1333 63° Northeast 540 621 35,000  Level Gander Center
Sun 02:17:04 PM 52.5333 -61.9333 51° Northeast 540 621 35,000  Level Gander Center
Sun 02:18:04 PM 52.6167 -61.7167 58° Northeast 540 621 35,000  Level Gander Center
Sun 02:19:04 PM 52.7000 -61.5000 58° Northeast 540 621 35,000  Level Gander Center
Sun 02:20:04 PM 52.7667 -61.3167 59° Northeast 540 621 35,000  Level Gander Center
Sun 02:21:04 PM 52.8500 -61.0833 59° Northeast 540 621 35,000 50 Level Gander Center
Sun 02:22:04 PM 52.9333 -60.9000 53° Northeast 540 621 35,100  Climbing Gander Center
Sun 02:23:04 PM 53.0167 -60.6667 59° Northeast 540 621 35,000 -67 Descending Gander Center
Sun 02:23:34 PM 53.0500 -60.5500 65° Northeast 540 621 35,000  Level Moncton Center
Sun 02:24:34 PM 53.1167 -60.3333 63° Northeast 550 633 35,000  Level Moncton Center
Sun 02:25:04 PM 53.1500 -60.2167 64° Northeast 550 633 35,000  Level Gander Center
Sun 02:26:04 PM 53.2333 -60.0333 53° Northeast 550 633 35,000  Level Gander Center
Sun 02:27:04 PM 53.3167 -59.7667 62° Northeast 550 633 35,000  Level Gander Center
Sun 02:28:04 PM 53.4000 -59.5667 55° Northeast 550 633 35,000  Level Gander Center
Sun 02:29:04 PM 53.4833 -59.3500 57° Northeast 550 633 35,000  Level Gander Center
Sun 02:30:04 PM 53.5500 -59.1167 64° Northeast 550 633 35,000  Level Gander Center
Sun 02:31:04 PM 53.6333 -58.8833 59° Northeast 560 644 35,000  Level Gander Center
Sun 02:32:04 PM 53.7000 -58.6500 64° Northeast 570 656 35,000  Level Gander Center
Sun 02:33:04 PM 53.7833 -58.4167 59° Northeast 570 656 35,000  Level Gander Center
Sun 02:34:04 PM 53.8833 -58.1833 54° Northeast 580 667 35,000 50 Level Gander Center
Sun 02:35:04 PM 53.9333 -57.9667 69° East 580 667 35,100 400 Climbing Gander Center
Sun 02:35:34 PM 53.9833 -57.8333 57° Northeast 580 667 35,600 1,267 Climbing Moncton Center
Sun 02:36:34 PM 54.0667 -57.5833 60° Northeast 580 667 37,000 700 Climbing Moncton Center
Sun 02:37:34 PM 54.1500 -57.3500 59° Northeast 580 667 37,000  Level Moncton Center
Sun 02:38:04 PM 54.1833 -57.2333 64° Northeast 580 667 37,000  Level Gander Center
Sun 02:39:04 PM 54.2500 -56.9833 65° Northeast 580 667 37,000  Level Gander Center
Sun 02:39:34 PM 54.3000 -56.8667 54° Northeast 580 667 37,000  Level Moncton Center
Sun 02:40:34 PM 54.3667 -56.6167 65° Northeast 590 679 37,000  Level Moncton Center
Sun 02:41:04 PM 54.4000 -56.4833 67° East 590 679 37,000  Level Gander Center
Sun 02:42:04 PM 54.4833 -56.2500 58° Northeast 590 679 37,000  Level Gander Center
Sun 02:43:04 PM 54.5667 -55.9833 62° Northeast 590 679 37,000  Level Gander Center
Sun 02:44:04 PM 54.6500 -55.7667 56° Northeast 580 667 37,000  Level Gander Center
Sun 02:45:04 PM 54.7000 -55.4667 74° East 580 667 37,000  Level Gander Center
Sun 02:46:04 PM 54.7500 -55.2333 70° East 580 667 37,000  Level Gander Center
Sun 02:47:04 PM 54.8167 -54.9500 68° East 580 667 37,000 50 Level Gander Center
Sun 02:48:04 PM 54.9000 -54.7167 58° Northeast 580 667 37,100  Climbing Gander Center
Sun 02:49:04 PM 54.9500 -54.4333 73° East 580 667 37,000 -50 Descending Gander Center
Sun 02:50:04 PM 55.0167 -54.2000 63° Northeast 580 667 37,000  Level Gander Center
Sun 02:51:04 PM 55.0833 -53.9500 65° Northeast 580 667 37,000  Level Gander Center
Sun 02:52:04 PM 55.1333 -53.6667 73° East 580 667 37,000  Level Gander Center
Sun 02:53:04 PM 55.2000 -53.4333 63° Northeast 580 667 37,000  Level Gander Center
Sun 02:54:04 PM 55.2667 -53.1500 67° East 580 667 37,000  Level Gander Center
Sun 02:55:04 PM 55.3333 -52.9000 65° Northeast 580 667 37,000  Level Gander Center
Sun 02:56:04 PM 55.3833 -52.6167 73° East 600 690 37,000  Level Gander Center
Sun 02:57:04 PM 55.4333 -52.3500 72° East 600 690 37,000  Level Gander Center
Sun 02:58:04 PM 55.5000 -52.1167 63° Northeast 590 679 37,000  Level Gander Center
Sun 02:59:04 PM 55.5833 -51.8000 65° Northeast 590 679 37,000  Level Gander Center
Sun 03:00:04 PM 55.6167 -51.6167 72° East 580 667 37,000  Level Gander Center
Sun 03:02:49 PM 55.7667 -50.8667 70° East 470 541 37,000  Level Gander Center
Sun 03:03:49 PM 55.8167 -50.6167 70° East 550 633 37,000  Level Gander Center
Sun 03:05:00 PM 55.8998 -50.3392 62° Northeast  Level FlightAware Approximate
Sun 03:12:00 PM 56.1970 -48.5548 76° East  Level FlightAware Approximate
Sun 03:13:00 PM 56.2306 -48.2935 77° East  Level FlightAware Approximate
Sun 03:14:00 PM 56.2637 -48.0317 77° East  Level FlightAware Approximate
Sun 03:15:00 PM 56.2962 -47.7694 77° East  Level FlightAware Approximate
Sun 03:16:00 PM 56.3282 -47.5067 78° East  Level FlightAware Approximate
Sun 03:16:13 PM 56.3333 -47.2167 79° East 560 644 37,000  Level Gander Center
Sun 03:17:00 PM 56.3596 -47.2436 78° East  Level FlightAware Approximate
Sun 03:17:13 PM 56.3667 -46.9333 78° East 560 644 37,000  Level Gander Center
Sun 03:18:00 PM 56.3905 -46.9801 78° East  Level FlightAware Approximate
Sun 03:18:13 PM 56.4000 -46.6667 77° East 560 644 37,000  Level Gander Center
Sun 03:19:00 PM 56.4210 -46.7162 78° East  Level FlightAware Approximate
Sun 03:19:13 PM 56.4167 -46.3833 84° East 560 644 37,000  Level Gander Center
Sun 03:20:00 PM 56.4510 -46.4519 78° East  Level FlightAware Approximate
Sun 03:20:13 PM 56.4500 -46.1167 77° East 560 644 37,000  Level Gander Center
Sun 03:21:00 PM 56.4803 -46.1871 79° East  Level FlightAware Approximate
Sun 03:21:13 PM 56.5000 -45.8667 70° East 560 644 37,000  Level Gander Center
Sun 03:22:13 PM 56.5333 -45.5667 78° East 560 644 37,000  Level Gander Center
Sun 03:23:13 PM 56.5333 -45.2833 90° East 560 644 37,000  Level Gander Center
Sun 03:24:13 PM 56.5833 -45.0333 70° East 560 644 37,000  Level Gander Center
Sun 03:25:13 PM 56.6000 -44.7333 84° East 560 644 37,000  Level Gander Center
Sun 03:26:13 PM 56.6167 -44.4500 84° East 560 644 37,000  Level Gander Center
Sun 03:27:13 PM 56.6500 -44.1833 77° East 560 644 37,000  Level Gander Center
Sun 03:28:13 PM 56.6833 -43.9000 78° East 560 644 37,000  Level Gander Center
Sun 03:29:13 PM 56.7000 -43.6333 83° East 560 644 37,000  Level Gander Center
Sun 03:30:13 PM 56.7167 -43.3500 84° East 560 644 37,000  Level Gander Center
Sun 03:31:13 PM 56.7500 -43.0833 77° East 560 644 37,000  Level Gander Center
Sun 03:32:13 PM 56.7667 -42.8000 84° East 560 644 37,000  Level Gander Center
Sun 03:33:13 PM 56.7833 -42.5333 83° East 560 644 37,000  Level Gander Center
Sun 03:34:13 PM 56.8167 -42.2333 78° East 560 644 37,000  Level Gander Center
Sun 03:35:13 PM 56.8500 -41.9667 77° East 560 644 37,000  Level Gander Center
Sun 03:36:13 PM 56.8500 -41.6833 90° East 560 644 37,000  Level Gander Center
Sun 03:37:13 PM 56.8667 -41.4000 84° East 560 644 37,000  Level Gander Center
Sun 03:38:13 PM 56.9000 -41.1333 77° East 560 644 37,000  Level Gander Center
Sun 03:39:13 PM 56.9167 -40.8333 84° East 560 644 37,000  Level Gander Center
Sun 03:40:13 PM 56.9333 -40.5500 84° East 560 644 37,000  Level Gander Center
Sun 03:41:13 PM 56.9500 -40.2833 83° East 560 644 37,000  Level Gander Center
Sun 03:42:13 PM 56.9667 -39.9833 84° East 560 644 37,000  Level Gander Center
Sun 03:43:13 PM 56.9500 -39.7000 96° East 560 644 37,000  Level Gander Center
Sun 03:44:13 PM 56.9500 -39.4333 90° East 560 644 37,000  Level Gander Center
Sun 03:45:13 PM 56.9333 -39.1500 96° East 560 644 37,000  Level Gander Center
Sun 03:46:13 PM 56.9167 -38.8667 96° East 560 644 37,000  Level Gander Center
Sun 03:47:13 PM 56.9000 -38.5667 96° East 570 656 37,000  Level Gander Center
Sun 03:48:13 PM 56.8833 -38.3000 96° East 570 656 37,000  Level Gander Center
Sun 03:49:13 PM 56.8500 -38.0500 104° East 570 656 37,000  Level Gander Center
Sun 03:50:13 PM 56.8167 -37.7167 100° East 570 656 37,000  Level Gander Center
Sun 03:52:00 PM 56.7804 -37.2334 98° East  Level FlightAware Approximate
Sun 03:59:00 PM 56.6202 -35.3463 98° East  Level FlightAware Approximate
Sun 04:00:00 PM 56.5950 -35.0781 100° East  Level FlightAware Approximate
Sun 04:01:00 PM 56.5692 -34.8102 100° East  Level FlightAware Approximate
Sun 04:02:00 PM 56.5428 -34.5427 100° East  Level FlightAware Approximate
Sun 04:03:00 PM 56.5159 -34.2756 100° East  Level FlightAware Approximate
Sun 04:04:00 PM 56.4884 -34.0088 100° East  Level FlightAware Approximate
Sun 04:05:00 PM 56.4603 -33.7425 101° East  Level FlightAware Approximate
Sun 04:06:00 PM 56.4317 -33.4765 101° East  Level FlightAware Approximate
Sun 04:07:00 PM 56.4024 -33.2110 101° East  Level FlightAware Approximate
Sun 04:08:00 PM 56.3727 -32.9459 101° East  Level FlightAware Approximate
Sun 04:09:00 PM 56.3423 -32.6811 102° East  Level FlightAware Approximate
Sun 04:10:00 PM 56.3114 -32.4168 102° East  Level FlightAware Approximate
Sun 04:11:00 PM 56.2799 -32.1530 102° East  Level FlightAware Approximate
Sun 04:12:00 PM 56.2479 -31.8895 102° East  Level FlightAware Approximate
Sun 04:13:00 PM 56.2153 -31.6266 102° East  Level FlightAware Approximate
Sun 04:14:00 PM 56.1822 -31.3640 103° East  Level FlightAware Approximate
Sun 04:15:00 PM 56.1485 -31.1020 103° East  Level FlightAware Approximate
Sun 04:16:00 PM 56.1142 -30.8403 103° East  Level FlightAware Approximate
Sun 04:17:00 PM 56.0794 -30.5792 103° East  Level FlightAware Approximate
Sun 04:18:00 PM 56.0440 -30.3185 104° East  Level FlightAware Approximate
Sun 04:19:00 PM 56.0081 -30.0583 104° East  Level FlightAware Approximate
Sun 04:20:00 PM 55.9689 -29.7995 105° East  Level FlightAware Approximate
Sun 04:21:00 PM 55.9283 -29.5420 106° East  Level FlightAware Approximate
Sun 04:22:00 PM 55.8873 -29.2851 106° East  Level FlightAware Approximate
Sun 04:23:00 PM 55.8456 -29.0287 106° East  Level FlightAware Approximate
Sun 04:24:00 PM 55.8035 -28.7729 106° East  Level FlightAware Approximate
Sun 04:25:00 PM 55.7608 -28.5176 106° East  Level FlightAware Approximate
Sun 04:26:00 PM 55.7176 -28.2629 107° East  Level FlightAware Approximate
Sun 04:27:00 PM 55.6739 -28.0087 107° East  Level FlightAware Approximate
Sun 04:28:00 PM 55.6297 -27.7551 107° East  Level FlightAware Approximate
Sun 04:29:00 PM 55.5849 -27.5021 107° East  Level FlightAware Approximate
Sun 04:30:00 PM 55.5406 -27.2491 107° East  Level FlightAware Approximate
Sun 04:31:00 PM 55.4965 -26.9963 107° East  Level FlightAware Approximate
Sun 04:32:00 PM 55.4519 -26.7441 107° East  Level FlightAware Approximate
Sun 04:33:00 PM 55.4067 -26.4924 107° East  Level FlightAware Approximate
Sun 04:34:00 PM 55.3611 -26.2414 108° East  Level FlightAware Approximate
Sun 04:35:00 PM 55.3149 -25.9909 108° East  Level FlightAware Approximate
Sun 04:36:00 PM 55.2682 -25.7409 108° East  Level FlightAware Approximate
Sun 04:37:00 PM 55.2210 -25.4916 108° East  Level FlightAware Approximate
Sun 04:38:00 PM 55.1733 -25.2429 108° East  Level FlightAware Approximate
Sun 04:39:00 PM 55.1251 -24.9948 109° East  Level FlightAware Approximate
Sun 04:40:00 PM 55.0757 -24.7476 110° East  Level FlightAware Approximate
Sun 04:41:00 PM 55.0251 -24.5016 110° East  Level FlightAware Approximate
Sun 04:42:00 PM 54.9739 -24.2562 110° East  Level FlightAware Approximate
Sun 04:43:00 PM 54.9223 -24.0114 110° East  Level FlightAware Approximate
Sun 04:44:00 PM 54.8702 -23.7673 110° East  Level FlightAware Approximate
Sun 04:45:00 PM 54.8176 -23.5237 110° East  Level FlightAware Approximate
Sun 04:46:00 PM 54.7645 -23.2809 111° Southeast  Level FlightAware Approximate
Sun 04:47:00 PM 54.7109 -23.0386 111° Southeast  Level FlightAware Approximate
Sun 04:48:00 PM 54.6568 -22.7970 111° Southeast  Level FlightAware Approximate
Sun 04:49:00 PM 54.6023 -22.5560 111° Southeast  Level FlightAware Approximate
Sun 04:50:00 PM 54.5478 -22.3154 111° Southeast  Level FlightAware Approximate
Sun 04:51:00 PM 54.4936 -22.0749 111° Southeast  Level FlightAware Approximate
Sun 04:52:00 PM 54.4389 -21.8350 111° Southeast  Level FlightAware Approximate
Sun 04:53:00 PM 54.3838 -21.5957 112° Southeast  Level FlightAware Approximate
Sun 04:54:00 PM 54.3282 -21.3571 112° Southeast  Level FlightAware Approximate
Sun 04:55:00 PM 54.2721 -21.1191 112° Southeast  Level FlightAware Approximate
Sun 04:56:00 PM 54.2156 -20.8818 112° Southeast  Level FlightAware Approximate
Sun 04:57:00 PM 54.1586 -20.6451 112° Southeast  Level FlightAware Approximate
Sun 04:58:00 PM 54.1011 -20.4091 112° Southeast  Level FlightAware Approximate
Sun 04:59:00 PM 54.0432 -20.1737 113° Southeast  Level FlightAware Approximate
Sun 05:00:00 PM 53.9826 -19.9407 117° Southeast  Level FlightAware Approximate
Sun 05:01:00 PM 53.9152 -19.7134 117° Southeast  Level FlightAware Approximate
Sun 05:02:00 PM 53.8475 -19.4868 117° Southeast  Level FlightAware Approximate
Sun 05:03:00 PM 53.7793 -19.2610 117° Southeast  Level FlightAware Approximate
Sun 05:04:00 PM 53.7107 -19.0359 117° Southeast  Level FlightAware Approximate
Sun 05:05:00 PM 53.6416 -18.8115 117° Southeast  Level FlightAware Approximate
Sun 05:06:00 PM 53.5722 -18.5879 118° Southeast  Level FlightAware Approximate
Sun 05:07:00 PM 53.5023 -18.3650 118° Southeast  Level FlightAware Approximate
Sun 05:08:00 PM 53.4320 -18.1428 118° Southeast  Level FlightAware Approximate
Sun 05:09:00 PM 53.3614 -17.9214 118° Southeast  Level FlightAware Approximate
Sun 05:10:00 PM 53.2902 -17.7007 118° Southeast  Level FlightAware Approximate
Sun 05:11:00 PM 53.2188 -17.4807 118° Southeast  Level FlightAware Approximate
Sun 05:12:00 PM 53.1469 -17.2615 119° Southeast  Level FlightAware Approximate
Sun 05:13:00 PM 53.0745 -17.0430 119° Southeast  Level FlightAware Approximate
Sun 05:14:00 PM 53.0018 -16.8253 119° Southeast  Level FlightAware Approximate
Sun 05:15:00 PM 52.9287 -16.6082 119° Southeast  Level FlightAware Approximate
Sun 05:16:00 PM 52.8552 -16.3919 119° Southeast  Level FlightAware Approximate
Sun 05:17:00 PM 52.7813 -16.1764 119° Southeast  Level FlightAware Approximate
Sun 05:18:00 PM 52.7071 -15.9616 120° Southeast  Level FlightAware Approximate
Sun 05:19:00 PM 52.6324 -15.7475 120° Southeast  Level FlightAware Approximate
Sun 05:20:00 PM 52.5574 -15.5341 120° Southeast  Level FlightAware Approximate
Sun 05:21:00 PM 52.4819 -15.3215 120° Southeast  Level FlightAware Approximate
Sun 05:22:00 PM 52.4061 -15.1096 120° Southeast  Level FlightAware Approximate
Sun 05:23:00 PM 52.3306 -14.8978 120° Southeast  Level FlightAware Approximate
Sun 05:24:00 PM 52.2553 -14.6862 120° Southeast  Level FlightAware Approximate
Sun 05:25:00 PM 52.1796 -14.4752 120° Southeast  Level FlightAware Approximate
Sun 05:26:00 PM 52.1036 -14.2650 120° Southeast  Level FlightAware Approximate
Sun 05:27:00 PM 52.0272 -14.0554 121° Southeast  Level FlightAware Approximate
Sun 05:28:00 PM 51.9504 -13.8466 121° Southeast  Level FlightAware Approximate
Sun 05:29:00 PM 51.8732 -13.6385 121° Southeast  Level FlightAware Approximate
Sun 05:30:00 PM 51.7957 -13.4312 121° Southeast  Level FlightAware Approximate
Sun 05:31:00 PM 51.7178 -13.2245 121° Southeast  Level FlightAware Approximate
Sun 05:32:00 PM 51.6396 -13.0185 121° Southeast  Level FlightAware Approximate
Sun 05:33:00 PM 51.5610 -12.8133 122° Southeast  Level FlightAware Approximate
Sun 05:34:00 PM 51.4821 -12.6088 122° Southeast  Level FlightAware Approximate
Sun 05:35:00 PM 51.4024 -12.4053 122° Southeast  Level FlightAware Approximate
Sun 05:36:00 PM 51.3218 -12.2032 122° Southeast  Level FlightAware Approximate
Sun 05:37:00 PM 51.2408 -12.0018 123° Southeast  Level FlightAware Approximate
Sun 05:38:00 PM 51.1595 -11.8011 123° Southeast  Level FlightAware Approximate
Sun 05:39:00 PM 51.0778 -11.6011 123° Southeast  Level FlightAware Approximate
Sun 05:39:32 PM 51.3388 -8.9848 123° Southeast 488 562 37,000  Level FlightAware UK
Sun 05:40:02 PM 51.3040 -8.8725 116° Southeast 488 562 37,000  Level FlightAware UK
Sun 05:40:32 PM 51.2718 -8.7599 115° Southeast 488 562 37,000  Level FlightAware UK
Sun 05:41:02 PM 51.2374 -8.6475 116° Southeast 486 559 37,000  Level FlightAware UK
Sun 05:41:32 PM 51.2023 -8.5354 117° Southeast 488 562 37,000  Level FlightAware UK
Sun 05:42:02 PM 51.1680 -8.4230 116° Southeast 492 566 37,000  Level FlightAware UK
Sun 05:42:32 PM 51.1333 -8.3109 116° Southeast 490 564 37,000  Level FlightAware UK
Sun 05:43:02 PM 51.0981 -8.1988 117° Southeast 492 566 37,000  Level FlightAware UK
Sun 05:43:32 PM 51.0618 -8.0864 117° Southeast 490 564 37,000  Level FlightAware UK
Sun 05:44:02 PM 51.0262 -7.9750 117° Southeast 490 564 37,000  Level FlightAware UK
Sun 05:44:32 PM 50.9908 -7.8638 117° Southeast 490 564 37,000  Level FlightAware UK
Sun 05:45:02 PM 50.9546 -7.7529 117° Southeast 492 566 37,000  Level FlightAware UK
Sun 05:45:32 PM 50.9184 -7.6423 117° Southeast 488 562 37,000  Level FlightAware UK
Sun 05:46:02 PM 50.8821 -7.5323 118° Southeast 488 562 37,000  Level FlightAware UK
Sun 05:46:32 PM 50.8461 -7.4223 117° Southeast 486 559 37,000  Level FlightAware UK
Sun 05:47:02 PM 50.8098 -7.3125 118° Southeast 486 559 37,000  Level FlightAware UK
Sun 05:47:32 PM 50.7742 -7.2024 117° Southeast 488 562 37,000  Level FlightAware UK
Sun 05:48:02 PM 50.7379 -7.0927 118° Southeast 488 562 37,000  Level FlightAware UK
Sun 05:48:33 PM 50.7016 -6.9825 117° Southeast 488 562 37,000  Level FlightAware UK
Sun 05:49:03 PM 50.6657 -6.8733 117° Southeast 486 559 37,000  Level FlightAware UK
Sun 05:49:33 PM 50.6302 -6.7641 117° Southeast 488 562 37,000  Level FlightAware UK
Sun 05:50:03 PM 50.5934 -6.6550 118° Southeast 486 559 37,000  Level FlightAware UK
Sun 05:50:33 PM 50.5566 -6.5462 118° Southeast 488 562 37,000  Level FlightAware UK
Sun 05:51:03 PM 50.5199 -6.4375 118° Southeast 488 562 37,000  Level FlightAware UK
Sun 05:51:33 PM 50.4812 -6.3279 119° Southeast 486 559 37,000  Level FlightAware UK
Sun 05:52:03 PM 50.4439 -6.2190 118° Southeast 488 562 37,000  Level FlightAware UK
Sun 05:52:33 PM 50.4068 -6.1105 118° Southeast 486 559 37,000  Level FlightAware UK
Sun 05:53:03 PM 50.3696 -6.0023 118° Southeast 488 562 37,000  Level FlightAware UK
Sun 05:53:33 PM 50.3322 -5.8942 118° Southeast 488 562 37,000  Level FlightAware UK
Sun 05:54:03 PM 50.2947 -5.7855 118° Southeast 490 564 37,000  Level FlightAware UK
Sun 05:54:33 PM 50.2570 -5.6780 119° Southeast 490 564 37,000  Level FlightAware UK
Sun 05:55:03 PM 50.2192 -5.5709 119° Southeast 486 559 37,000  Level FlightAware UK
Sun 05:55:33 PM 50.1816 -5.4642 119° Southeast 486 559 37,000  Level FlightAware UK
Sun 05:56:03 PM 50.1441 -5.3575 119° Southeast 490 564 37,000  Level FlightAware UK
Sun 05:56:33 PM 50.1065 -5.2512 119° Southeast 488 562 37,000  Level FlightAware UK
Sun 05:57:03 PM 50.0688 -5.1454 119° Southeast 488 562 37,000  Level FlightAware UK
Sun 05:57:33 PM 50.0310 -5.0398 119° Southeast 486 559 37,000  Level FlightAware UK
Sun 05:58:03 PM 49.9932 -4.9345 119° Southeast 488 562 37,000  Level FlightAware UK
Sun 05:58:33 PM 49.9553 -4.8286 119° Southeast 484 557 37,000  Level FlightAware UK
Sun 05:59:03 PM 49.9175 -4.7245 119° Southeast 484 557 37,000  Level FlightAware UK
Sun 05:59:33 PM 49.8797 -4.6206 119° Southeast 486 559 37,000  Level FlightAware UK
Sun 06:00:03 PM 49.8414 -4.5160 119° Southeast 486 559 37,000  Level FlightAware UK
Sun 06:00:33 PM 49.8034 -4.4121 120° Southeast 484 557 37,000  Level FlightAware UK
Sun 06:01:03 PM 49.7651 -4.3086 120° Southeast 482 555 37,000  Level FlightAware UK
Sun 06:01:33 PM 49.7270 -4.2049 120° Southeast 482 555 37,000  Level FlightAware UK
Sun 06:02:03 PM 49.6882 -4.1004 120° Southeast 484 557 37,000  Level FlightAware UK
Sun 06:02:33 PM 49.6573 -3.9895 113° Southeast 486 559 37,000  Level FlightAware UK
Sun 06:02:57 PM 49.6446 -3.8933 101° East 488 562 37,000  Level FlightAware UK
Sun 06:03:27 PM 49.6353 -3.7712 97° East 492 566 37,000  Level FlightAware UK
Sun 06:03:57 PM 49.6277 -3.6488 95° East 488 562 37,000  Level FlightAware UK
Sun 06:04:28 PM 49.6206 -3.5256 95° East 488 562 37,000  Level FlightAware UK
Sun 06:04:58 PM 49.6138 -3.4036 95° East 486 559 37,000  Level FlightAware UK
Sun 06:05:31 PM 49.6061 -3.2790 95° East 37,000  Level FlightAware ADS-B
Sun 06:05:38 PM 49.6042 -3.2505 96° East 575 662 37,000  Level FlightAware ADS-B
Sun 06:06:28 PM 49.5900 -3.0372 96° East 486 559 37,000  Level FlightAware UK
Sun 06:06:58 PM 49.5817 -2.9143 96° East 486 559 37,000  Level FlightAware UK
Sun 06:07:28 PM 49.5730 -2.7921 96° East 486 559 37,000  Level FlightAware UK
Sun 06:07:57 PM 49.5652 -2.6820 96° East 578 665 37,000  Level FlightAware ADS-B
Sun 06:08:29 PM 49.5558 -2.5533 96° East 578 665 37,000  Level FlightAware ADS-B
Sun 06:09:26 PM 49.5385 -2.3217 96° East 577 664 37,000  Level FlightAware ADS-B
Sun 06:09:58 PM 49.5287 -2.1924 97° East 577 664 37,000  Level FlightAware ADS-B
Sun 06:10:30 PM 49.5186 -2.0607 97° East 577 664 37,000  Level FlightAware ADS-B
Sun 06:11:00 PM 49.5091 -1.9381 97° East 577 664 37,000  Level FlightAware ADS-B
Sun 06:11:35 PM 49.4981 -1.7975 97° East 577 664 37,000  Level FlightAware ADS-B
Sun 06:12:05 PM 49.4882 -1.6739 97° East 578 665 37,000  Level FlightAware ADS-B
Sun 06:12:37 PM 49.4776 -1.5437 97° East 579 666 37,000  Level FlightAware ADS-B
Sun 06:13:07 PM 49.4675 -1.4199 97° East 579 666 37,000  Level FlightAware ADS-B
Sun 06:13:38 PM 49.4571 -1.2949 97° East 580 667 37,000  Level FlightAware ADS-B
Sun 06:14:14 PM 49.4447 -1.1480 97° East 580 667 37,000  Level FlightAware ADS-B
Sun 06:14:44 PM 49.4343 -1.0256 97° East 579 666 37,000  Level FlightAware ADS-B
Sun 06:15:15 PM 49.4236 -0.9020 98° East 580 667 37,000  Level FlightAware ADS-B
Sun 06:16:05 PM 49.4043 -0.6877 98° East 484 557 37,000  Level FlightAware UK
Sun 06:16:35 PM 49.3932 -0.5646 98° East 486 559 37,000  Level FlightAware UK
Sun 06:17:06 PM 49.3821 -0.4409 98° East 486 559 37,000  Level FlightAware UK
Sun 06:17:36 PM 49.3707 -0.3170 98° East 488 562 37,000  Level FlightAware UK
Sun 06:18:12 PM 49.3569 -0.1702 98° East 488 562 37,000  Level FlightAware UK
Sun 06:18:42 PM 49.3453 -0.0475 98° East 486 559 37,000 -300 Level FlightAware UK
Sun 06:19:12 PM 49.3394 0.0766 94° East 486 559 36,700 -1,500 Descending FlightAware UK
Sun 06:19:42 PM 49.3378 0.2004 91° East 490 564 35,500 -2,700 Descending FlightAware UK
Sun 06:20:12 PM 49.3368 0.3236 91° East 494 568 34,000 -3,100 Descending FlightAware UK
Sun 06:20:42 PM 49.3350 0.4459 91° East 498 573 32,400 -2,500 Descending FlightAware UK
Sun 06:21:12 PM 49.3322 0.5685 92° East 494 568 31,500 -2,182 Descending FlightAware UK
Sun 06:21:48 PM 49.3284 0.7076 92° East 488 562 30,000 -2,727 Descending FlightAware UK
Sun 06:22:18 PM 49.3248 0.8245 93° East 488 562 28,500 -2,800 Descending FlightAware UK
Sun 06:22:48 PM 49.3209 0.9398 93° East 482 555 27,200 -2,100 Descending FlightAware UK
Sun 06:23:18 PM 49.3167 1.0538 93° East 472 543 26,400 -1,900 Descending FlightAware UK
Sun 06:23:48 PM 49.3131 1.1655 93° East 468 539 25,300 -2,000 Descending FlightAware UK
Sun 06:24:18 PM 49.3092 1.2749 93° East 466 536 24,400 -2,459 Descending FlightAware UK
Sun 06:24:49 PM 49.3053 1.3850 93° East 472 543 22,800 -3,049 Descending FlightAware UK
Sun 06:25:19 PM 49.3015 1.4946 93° East 466 536 21,300 -3,000 Descending FlightAware UK
Sun 06:25:49 PM 49.2975 1.6029 93° East 468 539 19,800 -2,700 Descending FlightAware UK
Sun 06:26:19 PM 49.2938 1.7113 93° East 460 529 18,600 -2,500 Descending FlightAware UK
Sun 06:26:49 PM 49.2895 1.8159 94° East 452 520 17,300 -2,700 Descending FlightAware UK
Sun 06:27:19 PM 49.2845 1.9196 94° East 444 511 15,900 -2,600 Descending FlightAware UK
Sun 06:27:49 PM 49.2792 2.0215 95° East 440 506 14,700 -2,400 Descending FlightAware UK
Sun 06:28:19 PM 49.2745 2.1205 94° East 428 493 13,500 -2,500 Descending FlightAware UK
Sun 06:28:49 PM 49.2702 2.2182 94° East 418 481 12,200 -2,400 Descending FlightAware UK
Sun 06:29:19 PM 49.2659 2.3146 94° East 416 479 11,100 -2,200 Descending FlightAware UK
Sun 06:31:00 PM 49.0505 2.5151 149° Southeast  Level Estimated
Sun 06:38:00 PM 49.0128 2.5500 149° Southeast  Level Estimated
Sun 06:39:00 PM 49.0128 2.5500 180° South  Level Estimated
Sun 06:40:00 PM 49.0128 2.5500 180° South  Level Estimated

Login

Don't have an account? Register now (free) for customized features, flight alerts, and more!